createdAt,value
2019-06-11T00:01:35.125Z,16.60
2019-06-11T00:04:05.831Z,16.90
2019-06-11T00:06:35.849Z,17.63
2019-06-11T00:09:06.767Z,17.20
2019-06-11T00:11:36.453Z,17.83
2019-06-11T00:14:06.471Z,17.03
2019-06-11T00:16:36.185Z,18.00
2019-06-11T00:19:06.294Z,19.00
2019-06-11T00:21:36.195Z,16.83
2019-06-11T00:24:06.558Z,18.47
2019-06-11T00:26:36.090Z,18.63
2019-06-11T00:29:08.138Z,19.17
2019-06-11T00:31:37.413Z,19.40
2019-06-11T00:34:07.717Z,19.10
2019-06-11T00:36:37.281Z,19.70
2019-06-11T00:39:07.854Z,20.90
2019-06-11T00:41:37.227Z,21.07
2019-06-11T00:44:08.947Z,21.00
2019-06-11T00:46:38.012Z,20.20
2019-06-11T00:49:08.698Z,21.87
2019-06-11T00:51:38.214Z,21.70
2019-06-11T00:54:09.037Z,20.60
2019-06-11T00:56:40.075Z,19.80
2019-06-11T00:59:09.575Z,18.80
2019-06-11T01:01:39.231Z,19.80
2019-06-11T01:04:09.358Z,19.33
2019-06-11T01:06:38.896Z,19.70
2019-06-11T01:09:09.094Z,20.33
2019-06-11T01:15:39.419Z,18.60
2019-06-11T01:18:11.569Z,18.33
2019-06-11T01:20:42.388Z,19.43
2019-06-11T01:23:13.324Z,18.60
2019-06-11T01:25:43.725Z,17.93
2019-06-11T01:28:15.008Z,17.03
2019-06-11T01:30:45.107Z,19.25
2019-06-11T01:33:20.400Z,18.65
2019-06-11T01:35:45.925Z,18.43
2019-06-11T01:38:15.872Z,18.33
2019-06-11T01:40:45.265Z,17.27
2019-06-11T01:43:15.782Z,17.70
2019-06-11T01:45:45.469Z,15.40
2019-06-11T01:48:15.790Z,18.10
2019-06-11T01:50:45.497Z,18.97
2019-06-11T01:53:16.513Z,19.20
2019-06-11T01:55:46.067Z,18.10
2019-06-11T01:58:16.434Z,17.10
2019-06-11T02:00:47.004Z,17.80
2019-06-11T02:03:33.826Z,16.93
2019-06-11T02:05:47.480Z,15.33
2019-06-11T02:08:17.523Z,15.40
2019-06-11T02:10:48.323Z,16.77
2019-06-11T02:13:18.031Z,16.80
2019-06-11T02:15:47.415Z,17.07
2019-06-11T02:18:17.117Z,16.73
2019-06-11T02:20:46.796Z,15.93
2019-06-11T02:23:17.077Z,15.00
2019-06-11T02:25:46.821Z,16.77
2019-06-11T02:28:17.262Z,15.50
2019-06-11T02:30:55.014Z,16.40
2019-06-11T02:33:44.065Z,17.60
2019-06-11T02:35:59.764Z,17.00
2019-06-11T02:38:27.473Z,15.78
2019-06-11T02:40:52.022Z,16.50
2019-06-11T02:43:27.604Z,16.40
2019-06-11T02:45:53.443Z,17.70
2019-06-11T02:48:29.433Z,18.17
2019-06-11T02:50:55.529Z,17.30
2019-06-11T02:53:28.350Z,19.67
2019-06-11T02:55:56.294Z,19.40
2019-06-11T02:58:33.194Z,19.15
2019-06-11T03:01:03.011Z,19.50
2019-06-11T03:03:34.442Z,20.07
2019-06-11T03:06:14.781Z,16.77
2019-06-11T03:08:43.175Z,22.23
2019-06-11T03:11:19.567Z,19.10
2019-06-11T03:13:43.701Z,21.90
2019-06-11T03:16:24.777Z,23.60
2019-06-11T03:18:51.170Z,21.23
2019-06-11T03:21:27.408Z,22.95
2019-06-11T03:23:51.606Z,24.27
2019-06-11T03:26:28.619Z,25.10
2019-06-11T03:28:55.147Z,26.12
2019-06-11T03:32:14.149Z,26.07
2019-06-11T03:39:15.545Z,27.15
2019-06-11T03:41:33.620Z,29.47
2019-06-11T03:44:01.783Z,29.10
2019-06-11T03:46:35.616Z,29.90
2019-06-11T03:49:02.363Z,32.20
2019-06-11T03:51:35.752Z,32.23
2019-06-11T03:54:03.208Z,34.77
2019-06-11T03:56:35.639Z,33.77
2019-06-11T03:59:05.503Z,34.87
2019-06-11T04:01:38.714Z,33.92
2019-06-11T04:04:07.498Z,35.40
2019-06-11T04:06:54.841Z,37.90
2019-06-11T04:09:11.463Z,40.27
2019-06-11T04:11:41.397Z,38.53
2019-06-11T04:14:12.171Z,53.60
2019-06-11T04:17:01.702Z,41.83
2019-06-11T04:19:14.641Z,39.50
2019-06-11T04:21:44.202Z,42.98
2019-06-11T04:24:17.171Z,42.00
2019-06-11T04:26:47.575Z,42.67
2019-06-11T04:29:19.462Z,46.00
2019-06-11T04:31:51.411Z,51.83
2019-06-11T04:34:32.273Z,51.03
2019-06-11T04:37:14.001Z,55.03
2019-06-11T04:39:32.695Z,51.23
2019-06-11T04:46:07.495Z,48.33
2019-06-11T04:48:43.393Z,48.80
2019-06-11T04:51:11.921Z,48.47
2019-06-11T04:53:42.061Z,51.47
2019-06-11T04:56:12.068Z,49.97
2019-06-11T04:58:44.045Z,50.70
2019-06-11T05:06:20.257Z,53.00
2019-06-11T05:16:01.417Z,45.27
2019-06-11T05:24:56.805Z,42.30
2019-06-11T05:27:29.584Z,42.13
2019-06-11T05:29:57.694Z,40.97
2019-06-11T05:32:30.586Z,43.25
2019-06-11T05:35:00.956Z,41.97
2019-06-11T05:37:58.830Z,40.40
2019-06-11T05:40:01.737Z,30.93
2019-06-11T05:46:12.200Z,37.87
2019-06-11T05:48:41.713Z,35.17
2019-06-11T05:51:11.402Z,33.10
2019-06-11T05:53:40.779Z,28.33
2019-06-11T05:56:11.254Z,31.67
2019-06-11T05:58:41.606Z,34.30
2019-06-11T06:01:27.808Z,32.80
2019-06-11T06:03:42.466Z,37.03
2019-06-11T06:06:11.858Z,40.83
2019-06-11T06:08:41.404Z,38.63
2019-06-11T06:11:10.965Z,39.43
2019-06-11T06:13:41.837Z,30.70
2019-06-11T06:16:11.520Z,28.30
2019-06-11T06:18:41.325Z,26.63
2019-06-11T06:21:11.760Z,25.53
2019-06-11T06:23:41.441Z,28.00
2019-06-11T06:26:12.726Z,28.63
2019-06-11T06:28:43.954Z,29.80
2019-06-11T06:31:13.225Z,28.00
2019-06-11T06:33:42.864Z,29.67
2019-06-11T06:36:12.567Z,28.07
2019-06-11T06:38:48.401Z,29.67
2019-06-11T06:41:13.283Z,30.03
2019-06-11T06:43:42.651Z,30.07
2019-06-11T06:46:12.065Z,31.93
2019-06-11T06:48:41.764Z,30.67
2019-06-11T06:51:11.824Z,31.77
2019-06-11T06:53:41.527Z,33.17
2019-06-11T06:56:12.138Z,33.33
2019-06-11T06:58:41.658Z,30.43
2019-06-11T07:01:11.445Z,32.00
2019-06-11T07:03:44.350Z,32.97
2019-06-11T07:06:12.913Z,34.03
2019-06-11T07:09:00.538Z,32.50
2019-06-11T07:11:14.910Z,33.15
2019-06-11T07:13:44.562Z,32.20
2019-06-11T07:16:15.277Z,32.67
2019-06-11T07:18:51.378Z,30.20
2019-06-11T07:21:15.901Z,28.90
2019-06-11T07:23:46.535Z,30.43
2019-06-11T07:26:16.315Z,29.10
2019-06-11T07:28:45.705Z,29.20
2019-06-11T07:31:15.159Z,30.10
2019-06-11T07:33:46.172Z,30.10
2019-06-11T07:36:15.747Z,29.00
2019-06-11T07:38:46.681Z,30.87
2019-06-11T07:41:16.817Z,27.40
2019-06-11T07:43:51.202Z,27.73
2019-06-11T07:46:32.764Z,30.63
2019-06-11T07:48:59.333Z,29.73
2019-06-11T07:51:21.979Z,29.07
2019-06-11T07:53:52.206Z,29.30
2019-06-11T07:56:22.270Z,30.07
2019-06-11T07:58:52.398Z,33.40
2019-06-11T08:01:22.053Z,31.70
2019-06-11T08:03:52.025Z,31.53
2019-06-11T08:06:22.852Z,31.00
2019-06-11T08:12:34.729Z,29.00
2019-06-11T08:15:03.658Z,27.80
2019-06-11T08:17:34.456Z,29.10
2019-06-11T08:20:15.602Z,30.30
2019-06-11T08:22:41.212Z,30.55
2019-06-11T08:25:12.732Z,30.93
2019-06-11T08:27:57.691Z,31.33
2019-06-11T08:30:11.261Z,31.40
2019-06-11T08:32:42.354Z,33.08
2019-06-11T08:35:11.994Z,34.40
2019-06-11T08:37:46.222Z,35.43
2019-06-11T08:40:19.882Z,36.50
2019-06-11T08:42:46.893Z,34.70
2019-06-11T08:45:21.012Z,36.23
2019-06-11T08:47:48.236Z,35.92
2019-06-11T08:50:20.855Z,36.27
2019-06-11T08:52:50.566Z,39.93
2019-06-11T08:55:20.559Z,35.53
2019-06-11T08:57:52.892Z,34.83
2019-06-11T09:00:36.626Z,37.07
2019-06-11T09:02:52.501Z,36.33
2019-06-11T09:05:22.107Z,37.67
2019-06-11T09:07:52.054Z,38.20
2019-06-11T09:10:30.587Z,32.80
2019-06-11T09:12:52.908Z,33.87
2019-06-11T09:15:22.361Z,36.70
2019-06-11T09:17:53.330Z,35.37
2019-06-11T09:20:23.174Z,33.35
2019-06-11T09:22:54.075Z,36.60
2019-06-11T09:25:23.517Z,37.35
2019-06-11T09:27:54.643Z,36.10
2019-06-11T09:30:25.694Z,36.97
2019-06-11T09:32:55.308Z,37.23
2019-06-11T09:35:24.898Z,39.00
2019-06-11T09:37:54.264Z,36.03
2019-06-11T09:40:24.013Z,39.27
2019-06-11T09:42:54.104Z,38.20
2019-06-11T09:45:23.797Z,38.43
2019-06-11T09:48:01.061Z,37.20
2019-06-11T09:50:24.498Z,36.90
2019-06-11T09:52:54.270Z,35.47
2019-06-11T09:55:24.031Z,37.10
2019-06-11T09:58:00.943Z,36.57
2019-06-11T10:00:25.822Z,35.97
2019-06-11T10:06:30.761Z,36.50
2019-06-11T10:09:01.224Z,34.90
2019-06-11T10:11:40.307Z,38.33
2019-06-11T10:14:04.343Z,38.20
2019-06-11T10:16:34.011Z,35.70
2019-06-11T10:19:03.402Z,34.30
2019-06-11T10:21:33.083Z,34.33
2019-06-11T10:24:03.422Z,35.40
2019-06-11T10:26:33.180Z,34.40
2019-06-11T10:29:02.866Z,33.73
2019-06-11T10:31:32.249Z,32.30
2019-06-11T10:34:01.931Z,31.15
2019-06-11T10:36:31.306Z,32.30
2019-06-11T10:39:01.723Z,32.10
2019-06-11T10:41:46.956Z,32.53
2019-06-11T10:44:03.301Z,31.13
2019-06-11T10:46:32.971Z,32.00
2019-06-11T10:49:02.350Z,30.97
2019-06-11T10:51:32.015Z,32.50
2019-06-11T10:54:01.392Z,31.43
2019-06-11T10:56:31.219Z,32.43
2019-06-11T10:59:00.607Z,31.73
2019-06-11T11:01:32.001Z,31.83
2019-06-11T11:04:03.167Z,32.80
2019-06-11T11:06:32.965Z,31.55
2019-06-11T11:09:03.650Z,31.63
2019-06-11T11:11:34.992Z,31.30
2019-06-11T11:14:04.451Z,32.27
2019-06-11T11:16:34.187Z,30.87
2019-06-11T11:19:03.683Z,28.50
2019-06-11T11:21:33.338Z,28.53
2019-06-11T11:24:03.040Z,28.43
2019-06-11T11:26:32.721Z,27.07
2019-06-11T11:29:02.199Z,25.17
2019-06-11T11:31:35.109Z,23.70
2019-06-11T11:34:02.893Z,21.37
2019-06-11T11:36:32.532Z,20.30
2019-06-11T11:39:02.327Z,21.20
2019-06-11T11:41:33.608Z,19.73
2019-06-11T11:44:04.252Z,19.00
2019-06-11T11:46:35.026Z,17.83
2019-06-11T11:49:04.930Z,18.43
2019-06-11T11:51:35.434Z,18.70
2019-06-11T11:54:07.251Z,18.23
2019-06-11T11:56:38.525Z,18.43
2019-06-11T11:59:10.831Z,18.03
2019-06-11T12:01:41.956Z,19.47
2019-06-11T12:04:12.681Z,17.30
2019-06-11T12:06:42.346Z,16.60
2019-06-11T12:09:11.740Z,15.30
2019-06-11T12:11:41.117Z,15.10
2019-06-11T12:14:11.563Z,15.10
2019-06-11T12:16:42.222Z,17.03
2019-06-11T12:19:18.404Z,15.80
2019-06-11T12:21:43.498Z,15.47
2019-06-11T12:24:13.210Z,15.57
2019-06-11T12:26:42.846Z,14.93
2019-06-11T12:29:12.282Z,13.63
2019-06-11T12:31:41.941Z,14.73
2019-06-11T12:34:12.758Z,15.00
2019-06-11T12:36:42.239Z,15.00
2019-06-11T12:39:12.124Z,16.53
2019-06-11T12:41:41.751Z,20.33
2019-06-11T12:44:11.551Z,19.10
2019-06-11T12:46:42.001Z,19.37
2019-06-11T12:49:12.408Z,18.37
2019-06-11T12:51:42.260Z,18.13
2019-06-11T12:54:11.876Z,19.50
2019-06-11T12:56:42.250Z,19.83
2019-06-11T12:59:11.766Z,21.67
2019-06-11T13:01:42.658Z,18.80
2019-06-11T13:04:13.294Z,20.47
2019-06-11T13:06:43.655Z,20.37
2019-06-11T13:09:13.246Z,20.63
2019-06-11T13:11:42.633Z,19.63
2019-06-11T13:14:12.296Z,17.50
2019-06-11T13:16:42.749Z,18.20
2019-06-11T13:19:13.323Z,18.67
2019-06-11T13:21:42.704Z,16.27
2019-06-11T13:24:12.459Z,14.40
2019-06-11T13:26:41.893Z,17.93
2019-06-11T13:29:11.829Z,17.90
2019-06-11T13:31:42.211Z,17.50
2019-06-11T13:34:11.896Z,18.40
2019-06-11T13:36:41.364Z,17.90
2019-06-11T13:39:11.378Z,17.70
2019-06-11T13:41:41.381Z,16.97
2019-06-11T13:44:30.917Z,16.60
2019-06-11T13:46:44.676Z,16.40
2019-06-11T13:49:15.708Z,15.75
2019-06-11T13:51:45.333Z,15.60
2019-06-11T13:54:15.709Z,15.88
2019-06-11T13:56:45.581Z,15.70
2019-06-11T13:59:16.547Z,15.28
2019-06-11T14:01:45.984Z,13.80
2019-06-11T14:04:16.031Z,11.60
2019-06-11T14:06:45.426Z,15.90
2019-06-11T14:09:16.764Z,14.55
2019-06-11T14:11:46.362Z,14.40
2019-06-11T14:14:29.094Z,13.00
2019-06-11T14:16:46.830Z,13.83
2019-06-11T14:19:16.782Z,13.80
2019-06-11T14:21:46.502Z,12.33
2019-06-11T14:24:15.875Z,15.20
2019-06-11T14:26:45.697Z,13.47
2019-06-11T14:29:25.100Z,10.53
2019-06-11T14:31:47.427Z,12.90
2019-06-11T14:34:16.784Z,12.60
2019-06-11T14:36:46.491Z,12.23
2019-06-11T14:39:15.859Z,10.30
2019-06-11T14:41:45.420Z,11.17
2019-06-11T14:44:32.781Z,11.20
2019-06-11T14:46:47.319Z,11.87
2019-06-11T14:49:16.790Z,12.90
2019-06-11T14:51:47.104Z,11.80
2019-06-11T14:54:17.266Z,13.30
2019-06-11T14:56:46.865Z,11.83
2019-06-11T14:59:16.523Z,12.20
2019-06-11T15:01:45.909Z,12.40
2019-06-11T15:04:15.893Z,11.80
2019-06-11T15:06:45.513Z,13.10
2019-06-11T15:09:16.177Z,12.78
2019-06-11T15:11:45.566Z,12.60
2019-06-11T15:14:15.877Z,13.22
2019-06-11T15:16:45.581Z,12.30
2019-06-11T15:19:15.906Z,10.85
2019-06-11T15:21:46.206Z,11.93
2019-06-11T15:24:16.181Z,11.87
2019-06-11T15:26:45.774Z,13.20
2019-06-11T15:29:15.878Z,11.65
2019-06-11T15:31:45.627Z,11.87
2019-06-11T15:34:16.006Z,10.38
2019-06-11T15:36:45.683Z,10.20
2019-06-11T15:39:15.910Z,11.95
2019-06-11T15:41:45.527Z,11.20
2019-06-11T15:44:16.882Z,11.60
2019-06-11T15:46:51.475Z,11.47
2019-06-11T15:49:23.520Z,10.15
2019-06-11T15:51:51.710Z,10.10
2019-06-11T15:54:23.107Z,10.60
2019-06-11T15:56:53.550Z,9.80
2019-06-11T15:59:23.228Z,10.10
2019-06-11T16:01:52.665Z,8.80
2019-06-11T16:04:22.850Z,9.97
2019-06-11T16:06:52.912Z,9.13
2019-06-11T16:09:27.913Z,9.10
2019-06-11T16:11:53.624Z,8.50
2019-06-11T16:14:23.269Z,9.17
2019-06-11T16:16:52.734Z,9.20
2019-06-11T16:19:22.331Z,8.50
2019-06-11T16:21:51.707Z,7.90
2019-06-11T16:24:21.513Z,8.00
2019-06-11T16:26:50.923Z,8.83
2019-06-11T16:29:20.747Z,8.40
2019-06-11T16:31:52.552Z,9.13
2019-06-11T16:34:23.887Z,11.23
2019-06-11T16:36:53.305Z,10.47
2019-06-11T16:39:22.908Z,12.40
2019-06-11T16:41:52.632Z,12.10
2019-06-11T16:44:26.531Z,11.83
2019-06-11T16:46:54.646Z,12.45
2019-06-11T16:49:24.029Z,12.17
2019-06-11T16:51:53.703Z,12.73
2019-06-11T16:54:23.177Z,12.83
2019-06-11T16:56:52.925Z,12.90
2019-06-11T16:59:22.358Z,12.55
2019-06-11T17:01:51.772Z,12.63
2019-06-11T17:04:21.377Z,12.40
2019-06-11T17:06:51.006Z,12.60
2019-06-11T17:09:20.941Z,10.88
2019-06-11T17:11:51.782Z,11.50
2019-06-11T17:14:24.101Z,11.83
2019-06-11T17:16:53.288Z,12.60
2019-06-11T17:19:23.940Z,11.78
2019-06-11T17:21:53.622Z,10.28
2019-06-11T17:24:24.024Z,12.80
2019-06-11T17:26:53.732Z,11.53
2019-06-11T17:29:23.573Z,10.80
2019-06-11T17:31:53.234Z,11.80
2019-06-11T17:34:22.923Z,11.08
2019-06-11T17:36:52.306Z,11.90
2019-06-11T17:39:37.438Z,12.17
2019-06-11T17:42:02.790Z,10.87
2019-06-11T17:44:32.477Z,10.77
2019-06-11T17:47:01.849Z,12.30
2019-06-11T17:49:31.239Z,11.90
2019-06-11T17:52:01.714Z,11.17
2019-06-11T17:54:31.086Z,11.47
2019-06-11T17:57:00.767Z,11.10
2019-06-11T17:59:30.873Z,11.33
2019-06-11T18:02:01.462Z,11.97
2019-06-11T18:04:31.528Z,10.70
2019-06-11T18:07:01.305Z,10.00
2019-06-11T18:09:31.714Z,10.83
2019-06-11T18:12:04.529Z,11.27
2019-06-11T18:14:32.993Z,10.40
2019-06-11T18:17:02.362Z,10.77
2019-06-11T18:19:32.413Z,10.25
2019-06-11T18:22:01.887Z,10.10
2019-06-11T18:24:33.934Z,9.80
2019-06-11T18:27:02.337Z,10.50
2019-06-11T18:29:33.338Z,10.23
2019-06-11T18:32:02.959Z,10.30
2019-06-11T18:34:34.172Z,10.47
2019-06-11T18:37:03.930Z,10.97
2019-06-11T18:39:33.311Z,10.60
2019-06-11T18:42:03.111Z,10.23
2019-06-11T18:44:34.477Z,10.55
2019-06-11T18:47:10.175Z,10.90
2019-06-11T18:49:36.381Z,11.30
2019-06-11T18:52:06.453Z,9.77
2019-06-11T18:54:36.168Z,9.97
2019-06-11T18:57:05.892Z,10.17
2019-06-11T18:59:35.274Z,9.77
2019-06-11T19:02:04.958Z,10.50
2019-06-11T19:04:35.296Z,10.33
2019-06-11T19:07:04.956Z,8.23
2019-06-11T19:09:34.581Z,7.33
2019-06-11T19:12:04.024Z,10.57
2019-06-11T19:14:33.713Z,15.13
2019-06-11T19:17:03.068Z,8.40
2019-06-11T19:19:33.714Z,9.63
2019-06-11T19:22:04.362Z,9.27
2019-06-11T19:24:34.275Z,8.68
2019-06-11T19:27:03.923Z,8.77
2019-06-11T19:29:33.296Z,7.92
2019-06-11T19:32:03.958Z,10.20
2019-06-11T19:34:37.005Z,8.13
2019-06-11T19:37:05.182Z,8.58
2019-06-11T19:39:34.558Z,8.40
2019-06-11T19:42:04.279Z,9.13
2019-06-11T19:44:37.863Z,9.33
2019-06-11T19:47:05.316Z,10.47
2019-06-11T19:49:34.984Z,9.05
2019-06-11T19:52:04.587Z,9.40
2019-06-11T19:54:34.705Z,8.63
2019-06-11T19:57:04.246Z,7.23
2019-06-11T19:59:34.846Z,9.48
2019-06-11T20:02:04.508Z,7.27
2019-06-11T20:04:34.415Z,8.23
2019-06-11T20:07:05.381Z,8.07
2019-06-11T20:09:36.035Z,8.40
2019-06-11T20:12:06.465Z,7.43
2019-06-11T20:14:37.708Z,9.33
2019-06-11T20:17:07.210Z,9.90
2019-06-11T20:19:37.335Z,8.40
2019-06-11T20:22:07.029Z,8.40
2019-06-11T20:24:37.798Z,13.50
2019-06-11T20:27:07.268Z,12.80
2019-06-11T20:29:37.649Z,13.80
2019-06-11T20:32:07.447Z,13.10
2019-06-11T20:34:39.369Z,12.73
2019-06-11T20:37:09.248Z,10.93
2019-06-11T20:39:39.454Z,10.93
2019-06-11T20:42:09.982Z,11.65
2019-06-11T20:44:42.169Z,11.70
2019-06-11T20:47:10.838Z,11.60
2019-06-11T20:49:42.591Z,11.80
2019-06-11T20:52:11.701Z,10.03
2019-06-11T20:54:42.544Z,9.67
2019-06-11T20:57:12.916Z,9.30
2019-06-11T20:59:43.053Z,9.53
2019-06-11T21:02:12.600Z,11.60
2019-06-11T21:04:44.301Z,9.07
2019-06-11T21:07:13.484Z,11.10
2019-06-11T21:09:44.110Z,13.03
2019-06-11T21:12:13.827Z,13.37
2019-06-11T21:14:44.417Z,14.37
2019-06-11T21:17:14.210Z,12.97
2019-06-11T21:19:44.568Z,13.60
2019-06-11T21:22:14.511Z,14.10
2019-06-11T21:24:45.033Z,14.70
2019-06-11T21:27:16.840Z,14.55
2019-06-11T21:29:47.554Z,14.17
2019-06-11T21:32:17.000Z,14.17
2019-06-11T21:34:47.356Z,14.80
2019-06-11T21:37:16.962Z,15.23
2019-06-11T21:39:46.857Z,14.50
2019-06-11T21:42:16.850Z,14.80
2019-06-11T21:44:48.298Z,15.20
2019-06-11T21:47:20.106Z,15.20
2019-06-11T21:49:48.934Z,16.03
2019-06-11T21:52:20.654Z,16.30
2019-06-11T21:54:50.436Z,16.43
2019-06-11T21:57:21.163Z,17.00
2019-06-11T21:59:50.700Z,17.40
2019-06-11T22:02:20.952Z,16.23
2019-06-11T22:04:50.973Z,17.57
2019-06-11T22:07:21.114Z,17.57
2019-06-11T22:09:50.759Z,18.90
2019-06-11T22:12:21.082Z,17.50
2019-06-11T22:14:50.894Z,17.13
2019-06-11T22:17:21.011Z,17.90
2019-06-11T22:19:51.649Z,19.70
2019-06-11T22:22:21.020Z,21.00
2019-06-11T22:24:52.442Z,20.63
2019-06-11T22:27:21.842Z,20.40
2019-06-11T22:29:52.176Z,21.43
2019-06-11T22:32:21.884Z,20.77
2019-06-11T22:34:51.791Z,20.33
2019-06-11T22:37:21.500Z,20.90
2019-06-11T22:39:51.718Z,20.60
2019-06-11T22:42:21.080Z,21.67
2019-06-11T22:44:53.360Z,20.63
2019-06-11T22:47:21.943Z,21.80
2019-06-11T22:49:52.178Z,20.83
2019-06-11T22:52:21.931Z,21.83
2019-06-11T22:54:53.051Z,21.53
2019-06-11T22:57:22.973Z,21.20
2019-06-11T22:59:53.110Z,21.30
2019-06-11T23:02:23.109Z,20.77
2019-06-11T23:04:52.710Z,20.57
2019-06-11T23:07:22.098Z,20.00
2019-06-11T23:09:52.891Z,20.70
2019-06-11T23:12:22.618Z,22.05
2019-06-11T23:14:53.932Z,21.80
2019-06-11T23:17:24.870Z,23.65
2019-06-11T23:20:00.880Z,21.00
2019-06-11T23:22:25.873Z,22.35
2019-06-11T23:24:55.532Z,22.37
2019-06-11T23:27:24.935Z,22.60
2019-06-11T23:29:55.566Z,23.15
2019-06-11T23:32:24.994Z,22.50
2019-06-11T23:34:56.209Z,22.98
2019-06-11T23:37:26.415Z,22.90
2019-06-11T23:40:00.359Z,25.10
2019-06-11T23:42:26.865Z,24.73
2019-06-11T23:44:56.559Z,24.70
2019-06-11T23:47:26.224Z,25.90
2019-06-11T23:50:16.418Z,26.13
2019-06-11T23:52:26.858Z,25.30
2019-06-11T23:54:56.587Z,26.17
2019-06-11T23:57:26.941Z,25.60
2019-06-11T23:59:56.866Z,26.27
